Time;durP1;ratioP1;P1;durP2;ratioP2;P2;SDS_P1;SDS_P2;PMS_P1;PMS_P2;Temp;Humidity;BMP_temperature;BMP_pressure;BME280_temperature;BME280_humidity;BME280_pressure;Samples;Min_cycle;Max_cycle;Signal;HPM_P1;HPM_P2
2022/12/02 00:00:34;;;;;;;;;;;;;;;7.56;100.00;102480.72;5296686;28;19912;-70
2022/12/02 00:03:10;;;;;;;;;;;;;;;7.57;100.00;102490.22;5298857;28;19912;-70
2022/12/02 00:05:41;;;;;;;;;;;;;;;7.59;100.00;102494.56;5299383;28;20349;-69
2022/12/02 00:08:18;;;;;;;;;;;;;;;7.55;100.00;102489.47;5295231;28;19955;-70
2022/12/02 00:10:51;;;;;;;;;;;;;;;7.47;100.00;102490.75;5296094;28;20608;-70
2022/12/02 00:13:22;;;;;;;;;;;;;;;7.37;100.00;102485.09;5302016;28;19966;-70
2022/12/02 00:15:57;;;;;;;;;;;;;;;7.30;100.00;102483.66;5300649;28;20000;-69
2022/12/02 00:18:29;;;;;;;;;;;;;;;7.25;100.00;102485.66;5297734;28;20291;-69
2022/12/02 00:21:00;;;;;;;;;;;;;;;7.20;100.00;102482.41;5300280;28;19912;-69
2022/12/02 00:23:31;;;;;;;;;;;;;;;7.19;100.00;102478.09;5301537;28;20109;-70
2022/12/02 00:26:02;;;;;;;;;;;;;;;7.18;100.00;102481.63;5301690;28;19912;-70
2022/12/02 00:28:34;;;;;;;;;;;;;;;7.17;100.00;102479.94;5300016;28;20112;-70
2022/12/02 00:31:05;;;;;;;;;;;;;;;7.13;100.00;102481.81;5301595;28;19978;-69
2022/12/02 00:33:36;;;;;;;;;;;;;;;7.14;100.00;102478.28;5302633;28;20047;-70
2022/12/02 00:36:07;;;;;;;;;;;;;;;7.14;100.00;102469.63;5300343;28;20318;-70
2022/12/02 00:38:38;;;;;;;;;;;;;;;7.14;100.00;102462.66;5292106;28;19920;-70
2022/12/02 00:41:10;;;;;;;;;;;;;;;7.04;100.00;102464.81;5299352;28;19994;-70
2022/12/02 00:46:31;;;;;;;;;;;;;;;7.02;100.00;102458.84;5299428;28;19912;-70
2022/12/02 00:49:04;;;;;;;;;;;;;;;6.98;100.00;102457.28;5298236;28;19916;-70
2022/12/02 00:51:36;;;;;;;;;;;;;;;6.91;100.00;102458.47;5300675;28;19916;-69
2022/12/02 00:54:07;;;;;;;;;;;;;;;6.90;100.00;102455.94;5300000;28;19923;-70
2022/12/02 00:56:39;;;;;;;;;;;;;;;6.87;100.00;102449.09;5299054;28;19912;-70
2022/12/02 00:59:10;;;;;;;;;;;;;;;6.88;100.00;102455.97;5298824;28;19924;-70
2022/12/02 01:01:43;;;;;;;;;;;;;;;6.89;100.00;102452.44;5299096;28;19923;-70
2022/12/02 01:04:14;;;;;;;;;;;;;;;6.86;100.00;102460.44;5290993;28;20334;-70
2022/12/02 01:06:45;;;;;;;;;;;;;;;6.83;100.00;102448.38;5300594;28;19920;-69
2022/12/02 01:09:16;;;;;;;;;;;;;;;6.86;100.00;102454.34;5297182;28;19916;-70
2022/12/02 01:11:48;;;;;;;;;;;;;;;6.74;100.00;102453.13;5298442;28;19923;-69
2022/12/02 01:14:19;;;;;;;;;;;;;;;6.73;100.00;102451.44;5300578;28;19915;-70
2022/12/02 01:16:51;;;;;;;;;;;;;;;6.75;100.00;102455.69;5298934;28;19908;-69
2022/12/02 01:19:22;;;;;;;;;;;;;;;6.80;100.00;102455.47;5300475;28;19923;-70
2022/12/02 01:21:53;;;;;;;;;;;;;;;6.77;100.00;102447.78;5300103;28;19938;-69
2022/12/02 01:24:24;;;;;;;;;;;;;;;6.82;100.00;102456.25;5300072;28;19911;-70
2022/12/02 01:26:56;;;;;;;;;;;;;;;6.76;100.00;102452.16;5299479;28;19912;-70
2022/12/02 01:29:27;;;;;;;;;;;;;;;6.77;100.00;102451.22;5298715;28;20014;-69
2022/12/02 01:31:58;;;;;;;;;;;;;;;6.80;100.00;102453.72;5300010;28;19919;-70
2022/12/02 01:34:29;;;;;;;;;;;;;;;6.72;100.00;102449.75;5300260;28;20284;-69
2022/12/02 01:37:00;;;;;;;;;;;;;;;6.73;100.00;102446.22;5280943;28;19923;-70
2022/12/02 01:39:31;;;;;;;;;;;;;;;6.73;100.00;102446.22;5296700;28;19961;-70
2022/12/02 01:42:03;;;;;;;;;;;;;;;6.70;100.00;102447.19;5299646;28;20429;-69
2022/12/02 01:44:35;;;;;;;;;;;;;;;6.74;100.00;102451.38;5298936;28;20276;-69
2022/12/02 01:47:06;;;;;;;;;;;;;;;6.73;100.00;102451.44;5298987;28;19911;-69
2022/12/02 01:49:37;;;;;;;;;;;;;;;6.70;100.00;102457.59;5299725;28;20339;-70
2022/12/02 01:52:08;;;;;;;;;;;;;;;6.69;100.00;102450.72;5299452;28;19912;-69
2022/12/02 01:54:39;;;;;;;;;;;;;;;6.68;100.00;102449.03;5300068;28;19923;-70
2022/12/02 01:57:12;;;;;;;;;;;;;;;6.68;100.00;102449.03;5299171;28;20006;-69
2022/12/02 01:59:43;;;;;;;;;;;;;;;6.68;100.00;102438.63;5287394;28;20324;-69
2022/12/02 02:02:23;;;;;;;;;;;;;;;6.58;100.00;102426.88;5299332;28;19912;-69
2022/12/02 02:04:57;;;;;;;;;;;;;;;6.71;100.00;102448.06;5299124;28;20415;-70
2022/12/02 02:07:29;;;;;;;;;;;;;;;6.76;100.00;102448.69;5299297;28;19969;-70
2022/12/02 02:10:00;;;;;;;;;;;;;;;6.72;100.00;102441.94;5296001;28;20546;-69
2022/12/02 02:12:32;;;;;;;;;;;;;;;6.68;100.00;102449.03;5297505;28;19927;-70
2022/12/02 02:15:04;;;;;;;;;;;;;;;6.67;100.00;102441.28;5299775;28;20288;-69
2022/12/02 02:17:35;;;;;;;;;;;;;;;6.66;100.00;102442.19;5297614;28;19915;-70
2022/12/02 02:20:09;;;;;;;;;;;;;;;6.66;100.00;102439.59;5295783;28;19938;-70
2022/12/02 02:22:43;;;;;;;;;;;;;;;6.64;100.00;102442.25;5299608;28;19916;-69
2022/12/02 02:25:15;;;;;;;;;;;;;;;6.64;100.00;102439.66;5298992;28;19939;-70
2022/12/02 02:27:56;;;;;;;;;;;;;;;6.63;100.00;102443.19;5289097;28;19922;-70
2022/12/02 02:30:30;;;;;;;;;;;;;;;6.60;100.00;102442.47;5300227;28;20373;-69
2022/12/02 02:33:03;;;;;;;;;;;;;;;6.58;100.00;102432.94;5298374;28;20545;-70
2022/12/02 02:35:35;;;;;;;;;;;;;;;6.59;100.00;102428.56;5296640;28;20004;-69
2022/12/02 02:38:08;;;;;;;;;;;;;;;6.58;100.00;102435.53;5296806;28;19911;-69
2022/12/02 02:40:39;;;;;;;;;;;;;;;6.60;100.00;102432.06;5296555;28;20446;-70
2022/12/02 02:43:11;;;;;;;;;;;;;;;6.59;100.00;102428.56;5296831;28;19984;-70
2022/12/02 02:45:43;;;;;;;;;;;;;;;6.58;100.00;102424.28;5298330;28;19926;-69
2022/12/02 02:48:15;;;;;;;;;;;;;;;6.55;100.00;102420.06;5296418;28;20360;-69
2022/12/02 02:50:47;;;;;;;;;;;;;;;6.48;100.00;102416.03;5297512;28;19918;-70
2022/12/02 02:53:21;;;;;;;;;;;;;;;6.41;100.00;102417.19;5297994;28;20370;-69
2022/12/02 02:55:52;;;;;;;;;;;;;;;6.34;100.00;102419.22;5299666;28;19919;-69
2022/12/02 02:58:24;;;;;;;;;;;;;;;6.36;100.00;102416.53;5295669;28;19920;-68
2022/12/02 03:00:55;;;;;;;;;;;;;;;6.27;100.00;102412.56;5295100;28;19912;-69
2022/12/02 03:03:28;;;;;;;;;;;;;;;6.24;100.00;102412.69;5298136;28;19922;-69
2022/12/02 03:06:00;;;;;;;;;;;;;;;6.21;100.00;102411.97;5295854;28;19912;-70
2022/12/02 03:08:32;;;;;;;;;;;;;;;6.22;100.00;102414.53;5296156;28;19919;-70
2022/12/02 03:11:03;;;;;;;;;;;;;;;6.27;100.00;102411.72;5297919;28;19928;-70
2022/12/02 03:13:36;;;;;;;;;;;;;;;6.16;100.00;102403.50;5296551;28;19919;-70
2022/12/02 03:16:09;;;;;;;;;;;;;;;6.16;100.00;102400.91;5296862;28;19916;-70
2022/12/02 03:18:43;;;;;;;;;;;;;;;6.17;100.00;102394.78;5294880;28;19965;-70
2022/12/02 03:21:15;;;;;;;;;;;;;;;6.19;100.00;102398.19;5297551;28;19959;-69
2022/12/02 03:23:48;;;;;;;;;;;;;;;6.20;100.00;102392.91;5297654;28;19916;-69
2022/12/02 03:26:19;;;;;;;;;;;;;;;6.18;100.00;102386.09;5298107;28;19969;-69
2022/12/02 03:28:52;;;;;;;;;;;;;;;6.16;100.00;102393.94;5296395;28;20323;-70
2022/12/02 03:31:24;;;;;;;;;;;;;;;6.16;100.00;102395.69;5297216;28;20383;-70
2022/12/02 03:33:55;;;;;;;;;;;;;;;6.15;100.00;102399.22;5298547;28;19912;-70
2022/12/02 03:36:27;;;;;;;;;;;;;;;6.09;100.00;102405.50;5299970;28;20011;-69
2022/12/02 03:38:58;;;;;;;;;;;;;;;6.04;100.00;102408.31;5294094;28;20351;-69
2022/12/02 03:41:30;;;;;;;;;;;;;;;5.98;100.00;102408.53;5300353;28;19915;-70
2022/12/02 03:44:01;;;;;;;;;;;;;;;5.98;100.00;102407.69;5301788;28;19908;-69
2022/12/02 03:46:32;;;;;;;;;;;;;;;5.97;100.00;102398.22;5303240;28;19920;-69
2022/12/02 03:49:03;;;;;;;;;;;;;;;5.95;100.00;102394.84;5300396;28;19915;-69
2022/12/02 03:51:35;;;;;;;;;;;;;;;5.91;100.00;102391.47;5302859;28;19976;-70
2022/12/02 03:54:06;;;;;;;;;;;;;;;5.86;100.00;102383.84;5303255;28;19908;-69
2022/12/02 03:56:38;;;;;;;;;;;;;;;5.89;100.00;102395.88;5301373;28;20026;-70
2022/12/02 03:59:10;;;;;;;;;;;;;;;5.82;100.00;102384.03;5299347;28;19923;-68
2022/12/02 04:01:42;;;;;;;;;;;;;;;5.81;100.00;102374.53;5298454;28;19912;-70
2022/12/02 04:04:13;;;;;;;;;;;;;;;5.79;100.00;102373.75;5300857;28;19939;-68
2022/12/02 04:06:44;;;;;;;;;;;;;;;5.78;100.00;102377.25;5300241;28;19919;-70
2022/12/02 04:09:15;;;;;;;;;;;;;;;5.79;100.00;102376.34;5300210;28;19976;-69
2022/12/02 04:11:46;;;;;;;;;;;;;;;5.79;100.00;102374.59;5301481;28;20384;-70
2022/12/02 04:14:17;;;;;;;;;;;;;;;5.79;100.00;102376.34;5301437;28;20090;-69
2022/12/02 04:16:49;;;;;;;;;;;;;;;5.79;100.00;102379.78;5293908;28;19919;-69
2022/12/02 04:19:20;;;;;;;;;;;;;;;5.79;100.00;102379.78;5301054;28;19923;-70
2022/12/02 04:21:51;;;;;;;;;;;;;;;5.80;100.00;102368.50;5301647;28;19923;-69
2022/12/02 04:24:23;;;;;;;;;;;;;;;5.80;100.00;102375.47;5301920;28;20840;-69
2022/12/02 04:26:54;;;;;;;;;;;;;;;5.81;100.00;102374.53;5302716;28;19919;-69
2022/12/02 04:29:25;;;;;;;;;;;;;;;5.83;100.00;102364.91;5300554;28;19974;-70
2022/12/02 04:31:57;;;;;;;;;;;;;;;5.79;100.00;102364.19;5301062;28;19916;-69
2022/12/02 04:34:28;;;;;;;;;;;;;;;5.76;100.00;102372.13;5301170;28;19955;-69
2022/12/02 04:36:59;;;;;;;;;;;;;;;5.75;100.00;102366.97;5300182;28;19923;-70
2022/12/02 04:39:30;;;;;;;;;;;;;;;5.75;100.00;102366.97;5299069;28;19925;-69
2022/12/02 04:42:01;;;;;;;;;;;;;;;5.73;100.00;102368.81;5300613;28;20317;-69
2022/12/02 04:44:32;;;;;;;;;;;;;;;5.66;100.00;102368.19;5314934;22;20015;-70
2022/12/02 04:47:04;;;;;;;;;;;;;;;5.59;100.00;102362.38;5294310;28;19926;-70
2022/12/02 04:49:35;;;;;;;;;;;;;;;5.59;100.00;102375.38;5299943;28;19915;-70
2022/12/02 04:52:06;;;;;;;;;;;;;;;5.58;100.00;102358.09;5300328;28;20379;-71
2022/12/02 04:54:37;;;;;;;;;;;;;;;5.59;100.00;102358.94;5292187;28;19919;-71
2022/12/02 04:57:08;;;;;;;;;;;;;;;5.60;100.00;102356.28;5285423;28;19916;-71
2022/12/02 04:59:40;;;;;;;;;;;;;;;5.59;100.00;102351.16;5284016;28;20357;-71
2022/12/02 05:02:11;;;;;;;;;;;;;;;5.56;100.00;102348.66;5282048;28;20300;-71
2022/12/02 05:04:42;;;;;;;;;;;;;;;5.59;100.00;102353.75;5282866;28;19912;-70
2022/12/02 05:07:14;;;;;;;;;;;;;;;5.55;100.00;102350.44;5290816;28;19974;-71
2022/12/02 05:09:46;;;;;;;;;;;;;;;5.53;100.00;102349.66;5291156;28;20589;-71
2022/12/02 05:12:17;;;;;;;;;;;;;;;5.48;100.00;102342.94;5290108;28;19924;-73
2022/12/02 05:14:49;;;;;;;;;;;;;;;5.39;100.00;102344.16;5288441;28;19920;-71
2022/12/02 05:17:20;;;;;;;;;;;;;;;5.44;100.00;102346.56;5286742;28;19916;-71
2022/12/02 05:19:51;;;;;;;;;;;;;;;5.49;100.00;102336.81;5287021;28;19916;-71
2022/12/02 05:22:22;;;;;;;;;;;;;;;5.48;100.00;102333.38;5285355;28;19916;-69
2022/12/02 05:24:53;;;;;;;;;;;;;;;5.50;100.00;102334.19;5288351;28;19917;-71
2022/12/02 05:27:25;;;;;;;;;;;;;;;5.50;100.00;102330.72;5286089;28;19920;-71
2022/12/02 05:29:56;;;;;;;;;;;;;;;5.50;100.00;102338.53;5288945;28;20367;-71
2022/12/02 05:32:27;;;;;;;;;;;;;;;5.53;100.00;102333.19;5287056;28;19919;-71
2022/12/02 05:34:58;;;;;;;;;;;;;;;5.51;100.00;102338.47;5292009;28;19916;-71
2022/12/02 05:37:29;;;;;;;;;;;;;;;5.51;100.00;102345.41;5287624;28;19923;-71
2022/12/02 05:40:00;;;;;;;;;;;;;;;5.48;100.00;102342.94;5286928;28;19916;-70
2022/12/02 05:42:33;;;;;;;;;;;;;;;5.47;100.00;102339.50;5286107;28;20400;-71
2022/12/02 05:45:14;;;;;;;;;;;;;;;5.47;100.00;102326.50;5270792;28;19969;-71
2022/12/02 05:47:47;;;;;;;;;;;;;;;5.41;100.00;102331.91;5289899;28;20281;-71
2022/12/02 05:50:19;;;;;;;;;;;;;;;5.39;100.00;102325.13;5292244;28;20329;-71
2022/12/02 05:52:50;;;;;;;;;;;;;;;5.32;100.00;102324.50;5288251;28;19961;-71
2022/12/02 05:55:22;;;;;;;;;;;;;;;5.36;100.00;102326.06;5292348;28;20308;-71
2022/12/02 05:57:58;;;;;;;;;;;;;;;5.36;100.00;102333.88;5290612;28;20019;-71
2022/12/02 06:00:29;;;;;;;;;;;;;;;5.34;100.00;102326.13;5279525;28;19920;-71
2022/12/02 06:03:04;;;;;;;;;;;;;;;5.35;100.00;102332.19;5288262;28;19923;-70
2022/12/02 06:05:39;;;;;;;;;;;;;;;5.33;100.00;102333.97;5290164;28;20379;-72
2022/12/02 06:08:14;;;;;;;;;;;;;;;5.39;100.00;102327.72;5284053;28;19921;-71
2022/12/02 06:10:47;;;;;;;;;;;;;;;5.41;100.00;102331.06;5284739;28;19916;-72
2022/12/02 06:13:23;;;;;;;;;;;;;;;5.39;100.00;102328.56;5288557;28;20364;-71
2022/12/02 06:15:54;;;;;;;;;;;;;;;5.40;100.00;102324.19;5283569;28;19916;-72
2022/12/02 06:18:28;;;;;;;;;;;;;;;5.41;100.00;102331.91;5282376;28;19923;-72
2022/12/02 06:21:03;;;;;;;;;;;;;;;5.47;100.00;102331.69;5283530;28;19925;-72
2022/12/02 06:23:35;;;;;;;;;;;;;;;5.48;100.00;102328.19;5270186;28;19916;-71
2022/12/02 06:26:06;;;;;;;;;;;;;;;5.43;100.00;102330.13;5281222;28;19923;-71
2022/12/02 06:28:38;;;;;;;;;;;;;;;5.43;100.00;102319.72;5282545;28;19912;-72
2022/12/02 06:31:14;;;;;;;;;;;;;;;5.45;100.00;102327.44;5289554;28;20309;-72
2022/12/02 06:33:47;;;;;;;;;;;;;;;5.42;100.00;102328.44;5284208;28;20982;-70
2022/12/02 06:36:21;;;;;;;;;;;;;;;5.42;100.00;102328.44;5286570;28;20023;-72
2022/12/02 06:38:54;;;;;;;;;;;;;;;5.41;100.00;102324.13;5285327;28;19908;-72
2022/12/02 06:41:36;;;;;;;;;;;;;;;5.33;100.00;102323.56;5272094;28;20364;-70
2022/12/02 06:47:30;;;;;;;;;;;;;;;5.31;100.00;102320.22;5285267;28;19994;-72
2022/12/02 06:50:04;;;;;;;;;;;;;;;5.28;100.00;102323.75;5288233;28;19970;-72
2022/12/02 06:52:41;;;;;;;;;;;;;;;5.32;100.00;102327.94;5288304;28;19916;-71
2022/12/02 06:55:21;;;;;;;;;;;;;;;5.32;100.00;102324.50;5285850;28;19994;-71
2022/12/02 06:57:55;;;;;;;;;;;;;;;5.37;100.00;102328.59;5283340;28;20014;-71
2022/12/02 07:00:27;;;;;;;;;;;;;;;5.29;100.00;102322.84;5285742;28;19921;-69
2022/12/02 07:02:58;;;;;;;;;;;;;;;5.33;100.00;102328.78;5287224;28;20282;-71
2022/12/02 07:05:29;;;;;;;;;;;;;;;5.31;100.00;102333.22;5291943;28;20372;-71
2022/12/02 07:08:00;;;;;;;;;;;;;;;5.33;100.00;102329.63;5281380;28;19916;-75
2022/12/02 07:10:31;;;;;;;;;;;;;;;5.33;100.00;102336.56;5284675;28;20376;-72
2022/12/02 07:13:07;;;;;;;;;;;;;;;5.33;100.00;102336.56;5287363;28;19916;-72
2022/12/02 07:15:41;;;;;;;;;;;;;;;5.30;100.00;102337.56;5279268;28;19920;-72
2022/12/02 07:18:17;;;;;;;;;;;;;;;5.27;100.00;102339.44;5280472;28;19919;-72
2022/12/02 07:20:49;;;;;;;;;;;;;;;5.24;100.00;102331.75;5285813;28;19947;-71
2022/12/02 07:23:24;;;;;;;;;;;;;;;5.22;100.00;102334.38;5286155;28;20434;-71
2022/12/02 07:25:56;;;;;;;;;;;;;;;5.26;100.00;102338.56;5281389;28;19934;-72
2022/12/02 07:28:32;;;;;;;;;;;;;;;5.22;100.00;102346.53;5281649;28;20348;-72
2022/12/02 07:31:23;;;;;;;;;;;;;;;5.24;100.00;102342.97;5283185;28;20015;-72
2022/12/02 07:33:54;;;;;;;;;;;;;;;5.19;100.00;102349.25;5289153;28;19912;-73
2022/12/02 07:36:25;;;;;;;;;;;;;;;5.23;100.00;102348.25;5287674;28;19916;-72
2022/12/02 07:38:56;;;;;;;;;;;;;;;5.22;100.00;102338.75;5283065;28;19916;-72
2022/12/02 07:41:27;;;;;;;;;;;;;;;5.19;100.00;102337.13;5280757;28;19916;-72
2022/12/02 07:43:58;;;;;;;;;;;;;;;5.20;100.00;102330.19;5271488;28;19932;-73
2022/12/02 07:46:30;;;;;;;;;;;;;;;5.20;100.00;102332.78;5284324;28;20353;-72
2022/12/02 07:49:01;;;;;;;;;;;;;;;5.20;100.00;102332.78;5287313;28;19995;-73
2022/12/02 07:51:32;;;;;;;;;;;;;;;5.24;100.00;102331.75;5281549;28;19944;-72
2022/12/02 07:54:03;;;;;;;;;;;;;;;5.30;100.00;102326.28;5283657;28;20312;-72
2022/12/02 07:56:34;;;;;;;;;;;;;;;5.32;100.00;102329.69;5283588;28;19927;-71
2022/12/02 07:59:06;;;;;;;;;;;;;;;5.33;100.00;102327.03;5281283;28;19912;-72
2022/12/02 08:01:38;;;;;;;;;;;;;;;5.29;100.00;102335.00;5282087;28;19919;-73
2022/12/02 08:04:09;;;;;;;;;;;;;;;5.28;100.00;102333.31;5282851;28;19923;-73
2022/12/02 08:06:40;;;;;;;;;;;;;;;5.31;100.00;102341.00;5280958;28;20607;-72
2022/12/02 08:09:11;;;;;;;;;;;;;;;5.29;100.00;102342.78;5281821;28;19912;-73
2022/12/02 08:11:43;;;;;;;;;;;;;;;5.24;100.00;102347.34;5282727;28;20201;-73
2022/12/02 08:14:14;;;;;;;;;;;;;;;5.21;100.00;102343.09;5282839;28;19912;-71
2022/12/02 08:16:45;;;;;;;;;;;;;;;5.22;100.00;102344.78;5283339;28;19916;-73
2022/12/02 08:19:16;;;;;;;;;;;;;;;5.24;100.00;102342.13;5281995;28;19912;-73
2022/12/02 08:21:47;;;;;;;;;;;;;;;5.21;100.00;102337.06;5274438;28;19912;-72
2022/12/02 08:24:19;;;;;;;;;;;;;;;5.21;100.00;102339.66;5280993;28;19931;-73
2022/12/02 08:26:50;;;;;;;;;;;;;;;5.26;100.00;102332.53;5283803;28;20379;-72
2022/12/02 08:29:21;;;;;;;;;;;;;;;5.30;100.00;102341.88;5286474;28;20034;-71
2022/12/02 08:31:52;;;;;;;;;;;;;;;5.32;100.00;102332.28;5282848;28;19919;-71
2022/12/02 08:34:23;;;;;;;;;;;;;;;5.29;100.00;102333.25;5287631;28;19939;-71
2022/12/02 08:36:55;;;;;;;;;;;;;;;5.31;100.00;102330.59;5289196;28;19919;-72
2022/12/02 08:39:26;;;;;;;;;;;;;;;5.31;100.00;102333.22;5294157;28;19983;-72
2022/12/02 08:41:57;;;;;;;;;;;;;;;5.31;100.00;102328.84;5287845;28;20418;-73
2022/12/02 08:44:28;;;;;;;;;;;;;;;5.33;100.00;102328.78;5283137;28;20512;-72
2022/12/02 08:46:59;;;;;;;;;;;;;;;5.34;100.00;102330.47;5286412;28;19908;-72
2022/12/02 08:49:31;;;;;;;;;;;;;;;5.26;100.00;102338.56;5284874;28;19981;-72
2022/12/02 08:52:02;;;;;;;;;;;;;;;5.26;100.00;102337.72;5282818;28;20323;-72
2022/12/02 08:54:33;;;;;;;;;;;;;;;5.21;100.00;102337.91;5285446;28;19923;-72
2022/12/02 08:57:04;;;;;;;;;;;;;;;5.21;100.00;102339.66;5287074;28;19913;-72
2022/12/02 08:59:36;;;;;;;;;;;;;;;5.20;100.00;102341.41;5282323;28;19962;-72
2022/12/02 09:02:07;;;;;;;;;;;;;;;5.17;100.00;102325.94;5284805;28;19938;-73
2022/12/02 09:04:38;;;;;;;;;;;;;;;5.18;100.00;102332.81;5284098;28;19935;-72
2022/12/02 09:07:09;;;;;;;;;;;;;;;5.22;100.00;102331.78;5283774;28;19923;-72
2022/12/02 09:09:40;;;;;;;;;;;;;;;5.19;100.00;102324.13;5282748;28;19913;-72
2022/12/02 09:12:11;;;;;;;;;;;;;;;5.17;100.00;102330.28;5285766;28;19939;-72
2022/12/02 09:14:43;;;;;;;;;;;;;;;5.17;100.00;102330.28;5288880;28;19920;-72
2022/12/02 09:17:14;;;;;;;;;;;;;;;5.17;100.00;102330.28;5280247;28;20058;-72
2022/12/02 09:19:45;;;;;;;;;;;;;;;5.14;100.00;102331.25;5286001;28;19967;-72
2022/12/02 09:22:16;;;;;;;;;;;;;;;5.16;100.00;102324.25;5283989;28;19913;-72
2022/12/02 09:24:47;;;;;;;;;;;;;;;5.16;100.00;102334.63;5282891;28;19916;-72
2022/12/02 09:27:19;;;;;;;;;;;;;;;5.19;100.00;102326.72;5283356;28;20007;-72
2022/12/02 09:29:50;;;;;;;;;;;;;;;5.22;100.00;102328.34;5280467;28;19970;-72
2022/12/02 09:32:21;;;;;;;;;;;;;;;5.24;100.00;102329.16;5280008;28;19920;-73
2022/12/02 09:34:52;;;;;;;;;;;;;;;5.24;100.00;102323.94;5283633;28;20007;-72
2022/12/02 09:37:24;;;;;;;;;;;;;;;5.25;100.00;102330.84;5280726;28;19915;-73
2022/12/02 09:39:55;;;;;;;;;;;;;;;5.25;100.00;102329.06;5279605;28;20377;-72
2022/12/02 09:42:29;;;;;;;;;;;;;;;5.23;100.00;102319.66;5282908;28;19955;-73
2022/12/02 09:45:00;;;;;;;;;;;;;;;5.26;100.00;102316.94;5260821;28;20487;-72
2022/12/02 09:47:32;;;;;;;;;;;;;;;5.18;100.00;102314.63;5263652;28;19917;-73
2022/12/02 09:50:03;;;;;;;;;;;;;;;5.20;100.00;102309.38;5272180;28;19915;-73
2022/12/02 09:52:35;;;;;;;;;;;;;;;5.09;100.00;102313.25;5264823;28;20022;-71
2022/12/02 09:55:10;;;;;;;;;;;;;;;5.16;100.00;102307.81;5261272;28;20277;-72
2022/12/02 09:57:42;;;;;;;;;;;;;;;5.16;100.00;102307.81;5256699;28;19916;-73
2022/12/02 10:00:15;;;;;;;;;;;;;;;5.17;100.00;102319.91;5257260;28;20274;-73
2022/12/02 10:02:50;;;;;;;;;;;;;;;5.18;100.00;102311.19;5259633;28;20007;-72
2022/12/02 10:05:23;;;;;;;;;;;;;;;5.16;100.00;102307.81;5258006;28;19912;-72
2022/12/02 10:07:55;;;;;;;;;;;;;;;5.16;100.00;102316.44;5264034;28;19986;-72
2022/12/02 10:10:30;;;;;;;;;;;;;;;5.16;100.00;102311.25;5269838;28;20269;-71
2022/12/02 10:13:02;;;;;;;;;;;;;;;5.19;100.00;102308.53;5265086;28;19920;-71
2022/12/02 10:15:33;;;;;;;;;;;;;;;5.22;100.00;102303.19;5259783;28;19920;-72
2022/12/02 10:18:09;;;;;;;;;;;;;;;5.21;100.00;102304.13;5261755;28;19944;-72
2022/12/02 10:20:41;;;;;;;;;;;;;;;5.22;100.00;102305.81;5255259;28;19917;-73
2022/12/02 10:23:14;;;;;;;;;;;;;;;5.25;100.00;102299.66;5259688;28;20066;-71
2022/12/02 10:25:46;;;;;;;;;;;;;;;5.24;100.00;102306.59;5263008;28;19920;-73
2022/12/02 10:28:18;;;;;;;;;;;;;;;5.22;100.00;102307.56;5264500;28;19924;-73
2022/12/02 10:30:51;;;;;;;;;;;;;;;5.21;100.00;102303.28;5257146;28;19917;-72
2022/12/02 10:33:26;;;;;;;;;;;;;;;5.23;100.00;102299.72;5264512;28;20402;-73
2022/12/02 10:35:59;;;;;;;;;;;;;;;5.23;100.00;102299.72;5264353;28;19927;-73
2022/12/02 10:38:30;;;;;;;;;;;;;;;5.24;100.00;102296.22;5257604;28;19916;-72
2022/12/02 10:41:14;;;;;;;;;;;;;;;5.27;100.00;102296.09;5248881;28;19948;-73
2022/12/02 10:43:51;;;;;;;;;;;;;;;5.21;100.00;102285.94;5273794;28;20012;-72
2022/12/02 10:46:22;;;;;;;;;;;;;;;5.19;100.00;102284.28;5265825;28;20289;-73
2022/12/02 10:48:53;;;;;;;;;;;;;;;5.16;100.00;102279.25;5284076;28;19916;-72
2022/12/02 10:51:24;;;;;;;;;;;;;;;5.21;100.00;102279.91;5284017;28;19924;-74
2022/12/02 10:53:59;;;;;;;;;;;;;;;5.25;100.00;102278.88;5287264;28;19909;-72
2022/12/02 10:56:30;;;;;;;;;;;;;;;5.19;100.00;102279.97;5281277;28;19947;-72
2022/12/02 10:59:02;;;;;;;;;;;;;;;5.23;100.00;102281.53;5286375;28;19955;-72
2022/12/02 11:01:33;;;;;;;;;;;;;;;5.24;100.00;102278.03;5283001;28;20336;-74
2022/12/02 11:04:04;;;;;;;;;;;;;;;5.28;100.00;102276.16;5282221;28;19965;-72
2022/12/02 11:06:35;;;;;;;;;;;;;;;5.34;100.00;102276.75;5282503;28;19920;-74
2022/12/02 11:09:12;;;;;;;;;;;;;;;5.33;100.00;102266.41;5279757;28;19916;-72
2022/12/02 11:11:43;;;;;;;;;;;;;;;5.39;100.00;102267.94;5281705;28;19928;-72
2022/12/02 11:14:33;;;;;;;;;;;;;;;5.40;100.00;102270.47;5286876;28;19923;-72
2022/12/02 11:17:09;;;;;;;;;;;;;;;5.42;100.00;102267.78;5284874;28;20331;-72
2022/12/02 11:19:42;;;;;;;;;;;;;;;5.42;100.00;102270.38;5280919;28;20385;-72
2022/12/02 11:22:32;;;;;;;;;;;;;;;5.46;100.00;102264.19;5263923;28;19924;-72
2022/12/02 11:25:03;;;;;;;;;;;;;;;5.41;100.00;102250.50;5282209;28;20312;-72
2022/12/02 11:27:34;;;;;;;;;;;;;;;5.41;100.00;102260.91;5285947;28;19912;-73
2022/12/02 11:30:11;;;;;;;;;;;;;;;5.33;100.00;102258.63;5283785;28;19982;-72
2022/12/02 11:32:45;;;;;;;;;;;;;;;5.42;100.00;102250.47;5280780;28;19931;-73
2022/12/02 11:35:17;;;;;;;;;;;;;;;5.43;100.00;102254.75;5287034;28;19912;-72
2022/12/02 11:37:52;;;;;;;;;;;;;;;5.49;100.00;102254.50;5281416;28;20201;-72
2022/12/02 11:40:27;;;;;;;;;;;;;;;5.52;100.00;102256.97;5281978;28;20018;-73
2022/12/02 11:43:21;;;;;;;;;;;;;;;5.51;100.00;102259.63;5284668;28;20014;-72
2022/12/02 11:45:55;;;;;;;;;;;;;;;5.54;100.00;102254.31;5282001;28;19912;-74
2022/12/02 11:48:27;;;;;;;;;;;;;;;5.53;100.00;102258.66;5285916;28;20000;-72
2022/12/02 11:50:58;;;;;;;;;;;;;;;5.53;100.00;102250.00;5285714;28;19970;-72
2022/12/02 11:53:29;;;;;;;;;;;;;;;5.53;100.00;102247.41;5284029;28;20377;-72
2022/12/02 11:56:00;;;;;;;;;;;;;;;5.52;100.00;102246.56;5282139;28;19911;-73
2022/12/02 11:58:32;;;;;;;;;;;;;;;5.53;100.00;102245.69;5267530;28;19919;-73
2022/12/02 12:01:06;;;;;;;;;;;;;;;5.55;100.00;102243.84;5285935;28;19920;-72
2022/12/02 12:03:40;;;;;;;;;;;;;;;5.60;100.00;102241.88;5287103;28;19919;-72
2022/12/02 12:06:13;;;;;;;;;;;;;;;5.58;100.00;102241.13;5286430;28;20718;-73
2022/12/02 12:08:47;;;;;;;;;;;;;;;5.63;100.00;102242.69;5264627;28;19920;-74
2022/12/02 12:11:18;;;;;;;;;;;;;;;5.59;100.00;102242.81;5269252;28;19921;-73
2022/12/02 12:13:55;;;;;;;;;;;;;;;5.57;100.00;102241.19;5288985;28;19981;-73
2022/12/02 12:16:27;;;;;;;;;;;;;;;5.58;100.00;102233.31;5288967;28;19911;-74
2022/12/02 12:18:59;;;;;;;;;;;;;;;5.54;100.00;102233.50;5266853;28;19917;-72
2022/12/02 12:21:31;;;;;;;;;;;;;;;5.56;100.00;102232.53;5289718;28;19943;-73
2022/12/02 12:24:17;;;;;;;;;;;;;;;5.55;100.00;102235.19;5287433;28;19916;-72
2022/12/02 12:26:53;;;;;;;;;;;;;;;5.56;100.00;102231.69;5284314;28;19999;-72
2022/12/02 12:29:25;;;;;;;;;;;;;;;5.56;100.00;102226.47;5284981;28;19969;-74
2022/12/02 12:31:56;;;;;;;;;;;;;;;5.55;100.00;102237.78;5284497;28;19920;-73
2022/12/02 12:34:28;;;;;;;;;;;;;;;5.48;100.00;102220.75;5287400;28;19954;-72
2022/12/02 12:36:59;;;;;;;;;;;;;;;5.50;100.00;102225.00;5288616;28;20031;-72
2022/12/02 12:39:30;;;;;;;;;;;;;;;5.52;100.00;102220.56;5288815;28;19908;-72
2022/12/02 12:42:02;;;;;;;;;;;;;;;5.55;100.00;102217.00;5287112;28;19916;-72
2022/12/02 12:44:33;;;;;;;;;;;;;;;5.53;100.00;102217.09;5285869;28;19942;-73
2022/12/02 12:47:05;;;;;;;;;;;;;;;5.54;100.00;102215.31;5287257;28;19912;-73
2022/12/02 12:49:36;;;;;;;;;;;;;;;5.57;100.00;102220.41;5281039;28;19916;-72
2022/12/02 12:52:08;;;;;;;;;;;;;;;5.55;100.00;102214.41;5288671;28;19974;-73
2022/12/02 12:54:39;;;;;;;;;;;;;;;5.45;100.00;102211.31;5287466;28;19964;-72
2022/12/02 12:57:10;;;;;;;;;;;;;;;5.48;100.00;102207.75;5287030;28;20030;-73
2022/12/02 12:59:41;;;;;;;;;;;;;;;5.46;100.00;102212.19;5287570;28;19916;-72
2022/12/02 13:02:12;;;;;;;;;;;;;;;5.53;100.00;102201.47;5284027;28;19985;-73
2022/12/02 13:04:43;;;;;;;;;;;;;;;5.53;100.00;102208.41;5280345;28;19920;-72
2022/12/02 13:07:15;;;;;;;;;;;;;;;5.56;100.00;102197.88;5282518;28;19973;-72